Time;durP1;ratioP1;P1;durP2;ratioP2;P2;SDS_P1;SDS_P2;PMS_P1;PMS_P2;Temp;Humidity;BMP_temperature;BMP_pressure;BME280_temperature;BME280_humidity;BME280_pressure;Samples;Min_cycle;Max_cycle;Signal;HPM_P1;HPM_P2
2024/02/06 00:00:47;;;;;;;10.70;4.95;;;;;;;10.32;100.00;101695.88;5281348;27;20380;-75
2024/02/06 00:03:18;;;;;;;13.70;5.57;;;;;;;10.36;100.00;101691.91;5292026;27;20486;-76
2024/02/06 00:05:49;;;;;;;10.68;4.90;;;;;;;10.31;100.00;101687.00;5287906;27;20484;-75
2024/02/06 00:08:19;;;;;;;12.57;5.38;;;;;;;10.39;100.00;101696.97;5288603;28;20023;-75
2024/02/06 00:10:50;;;;;;;8.95;5.15;;;;;;;10.42;100.00;101691.34;5284779;27;20138;-76
2024/02/06 00:13:20;;;;;;;19.77;5.53;;;;;;;10.38;100.00;101690.78;5292331;27;20040;-75
2024/02/06 00:15:51;;;;;;;10.52;5.55;;;;;;;10.28;100.00;101689.09;5282709;27;20022;-75
2024/02/06 00:18:21;;;;;;;9.90;5.10;;;;;;;10.40;100.00;101696.00;5287612;27;20500;-75
2024/02/06 00:20:52;;;;;;;16.45;5.78;;;;;;;10.37;100.00;101686.41;5288635;28;20023;-75
2024/02/06 00:23:22;;;;;;;13.85;5.85;;;;;;;10.25;100.00;101687.56;5285530;28;20024;-75
2024/02/06 00:25:55;;;;;;;11.68;5.65;;;;;;;10.40;100.00;101682.59;5292073;28;20028;-75
2024/02/06 00:28:26;;;;;;;12.68;5.40;;;;;;;10.35;100.00;101671.47;5283133;28;20047;-75
2024/02/06 00:30:56;;;;;;;12.00;5.85;;;;;;;10.38;100.00;101669.31;5286447;28;20481;-75
2024/02/06 00:33:27;;;;;;;16.63;5.03;;;;;;;10.32;100.00;101655.66;5285453;27;20031;-75
2024/02/06 00:35:57;;;;;;;12.40;5.65;;;;;;;10.46;100.00;101663.25;5287268;28;20020;-75
2024/02/06 00:38:28;;;;;;;16.23;5.50;;;;;;;10.46;100.00;101655.19;5285697;28;20030;-75
2024/02/06 00:40:58;;;;;;;12.40;5.90;;;;;;;10.32;100.00;101656.50;5283751;28;20020;-75
2024/02/06 00:43:29;;;;;;;12.07;4.68;;;;;;;10.37;100.00;101653.38;5290110;27;20507;-75
2024/02/06 00:45:59;;;;;;;13.48;5.78;;;;;;;10.44;100.00;101649.13;5283410;27;20393;-76
2024/02/06 00:48:30;;;;;;;9.30;4.97;;;;;;;10.43;100.00;101646.56;5284910;28;20019;-76
2024/02/06 00:51:00;;;;;;;12.90;5.15;;;;;;;10.35;100.00;101639.28;5284104;28;20027;-76
2024/02/06 00:53:31;;;;;;;12.60;5.45;;;;;;;10.46;100.00;101640.94;5279847;28;20027;-75
2024/02/06 00:56:05;;;;;;;11.52;5.38;;;;;;;10.40;100.00;101628.13;5287530;27;20108;-75
2024/02/06 00:58:35;;;;;;;14.95;6.35;;;;;;;10.43;100.00;101627.81;5282900;27;20111;-76
2024/02/06 01:01:06;;;;;;;17.58;6.22;;;;;;;10.48;100.00;101623.69;5286028;27;20106;-75
2024/02/06 01:03:38;;;;;;;14.57;6.05;;;;;;;10.45;100.00;101637.41;5288666;27;20020;-76
2024/02/06 01:06:10;;;;;;;10.80;4.43;;;;;;;10.47;100.00;101626.53;5292601;27;20029;-75
2024/02/06 01:08:41;;;;;;;13.27;5.05;;;;;;;10.47;100.00;101624.69;5284531;28;20064;-75
2024/02/06 01:11:11;;;;;;;14.23;5.60;;;;;;;10.47;100.00;101623.84;5286004;27;20028;-75
2024/02/06 01:13:41;;;;;;;13.00;5.32;;;;;;;10.58;100.00;101621.81;5288096;27;20553;-75
2024/02/06 01:16:12;;;;;;;10.48;4.93;;;;;;;10.57;100.00;101616.59;5290481;27;20023;-75
2024/02/06 01:18:43;;;;;;;9.30;4.82;;;;;;;10.51;100.00;101603.78;5281825;28;20520;-76
2024/02/06 01:21:13;;;;;;;10.35;4.95;;;;;;;10.60;100.00;101627.88;5289219;27;20645;-76
2024/02/06 01:23:44;;;;;;;16.70;5.00;;;;;;;10.45;100.00;101607.91;5289910;27;20018;-76
2024/02/06 01:26:14;;;;;;;18.48;7.22;;;;;;;10.59;100.00;101609.22;5283395;28;20487;-76
2024/02/06 01:28:45;;;;;;;11.30;5.03;;;;;;;10.51;100.00;101593.06;5288909;27;20023;-76
2024/02/06 01:31:16;;;;;;;14.90;5.28;;;;;;;10.57;100.00;101589.78;5280037;28;20020;-76
2024/02/06 01:33:46;;;;;;;13.15;4.78;;;;;;;10.49;100.00;101589.66;5286287;27;20023;-76
2024/02/06 01:36:17;;;;;;;14.32;4.85;;;;;;;10.54;100.00;101587.38;5275094;28;20028;-76
2024/02/06 01:38:47;;;;;;;9.02;4.40;;;;;;;10.45;100.00;101581.06;5282690;28;20035;-76
2024/02/06 01:41:18;;;;;;;12.38;4.88;;;;;;;10.57;100.00;101584.41;5285310;27;20418;-76
2024/02/06 01:43:48;;;;;;;13.23;5.28;;;;;;;10.59;100.00;101585.97;5287871;27;20031;-75
2024/02/06 01:46:20;;;;;;;11.73;5.03;;;;;;;10.48;100.00;101586.13;5286080;28;20027;-76
2024/02/06 01:48:51;;;;;;;9.63;4.30;;;;;;;10.60;100.00;101581.44;5283638;27;20027;-75
2024/02/06 01:51:27;;;;;;;13.18;5.13;;;;;;;10.62;100.00;101576.75;5288662;27;20103;-76
2024/02/06 01:53:58;;;;;;;12.50;5.07;;;;;;;10.65;100.00;101581.84;5280282;27;20016;-75
2024/02/06 01:56:29;;;;;;;10.23;4.53;;;;;;;10.66;100.00;101585.34;5284776;27;20500;-76
2024/02/06 01:59:00;;;;;;;18.23;5.65;;;;;;;10.53;100.00;101575.78;5283316;27;20024;-75
2024/02/06 02:01:31;;;;;;;10.82;4.95;;;;;;;10.56;100.00;101564.78;5286919;27;20023;-76
2024/02/06 02:04:02;;;;;;;11.27;5.30;;;;;;;10.53;100.00;101574.94;5284670;27;20027;-76
2024/02/06 02:06:33;;;;;;;12.38;4.80;;;;;;;10.58;100.00;101578.88;5284726;27;20045;-76
2024/02/06 02:09:05;;;;;;;15.77;5.60;;;;;;;10.51;100.00;101556.34;5280313;28;20024;-76
2024/02/06 02:11:36;;;;;;;15.88;4.82;;;;;;;10.57;100.00;101579.03;5286216;27;20027;-76
2024/02/06 02:14:07;;;;;;;13.73;5.68;;;;;;;10.62;100.00;101558.81;5285716;27;20022;-76
2024/02/06 02:16:37;;;;;;;13.50;5.35;;;;;;;10.54;100.00;101568.59;5291966;27;20031;-76
2024/02/06 02:19:08;;;;;;;17.55;5.63;;;;;;;10.59;100.00;101555.56;5281719;27;20496;-76
2024/02/06 02:21:40;;;;;;;14.93;5.18;;;;;;;10.62;100.00;101557.97;5285214;28;20023;-76
2024/02/06 02:24:11;;;;;;;12.73;5.10;;;;;;;10.49;100.00;101539.56;5284717;28;20020;-76
2024/02/06 02:26:42;;;;;;;9.10;4.60;;;;;;;10.62;100.00;101560.66;5283218;28;20491;-76
2024/02/06 02:29:14;;;;;;;12.48;4.70;;;;;;;10.65;100.00;101556.84;5283519;28;21375;-76
2024/02/06 02:31:46;;;;;;;11.00;4.90;;;;;;;10.52;100.00;101533.88;5283618;28;20023;-75
2024/02/06 02:34:17;;;;;;;12.77;4.93;;;;;;;10.52;100.00;101533.88;5284659;28;20106;-76
2024/02/06 02:36:47;;;;;;;14.80;5.13;;;;;;;10.61;100.00;101532.13;5285475;28;20098;-76
2024/02/06 02:39:19;;;;;;;12.43;4.40;;;;;;;10.61;100.00;101527.59;5280586;27;20027;-75
2024/02/06 02:41:49;;;;;;;10.43;4.55;;;;;;;10.61;100.00;101538.34;5284172;28;20049;-75
2024/02/06 02:44:19;;;;;;;10.95;4.07;;;;;;;10.62;100.00;101531.97;5285780;28;20694;-75
2024/02/06 02:46:50;;;;;;;16.67;5.10;;;;;;;10.60;100.00;101530.44;5283482;28;21525;-75
2024/02/06 02:49:21;;;;;;;10.90;4.82;;;;;;;10.57;100.00;101525.38;5281293;28;20023;-76
2024/02/06 02:51:52;;;;;;;11.18;4.93;;;;;;;10.65;100.00;101505.84;5283900;28;20484;-75
2024/02/06 02:54:27;;;;;;;12.38;5.00;;;;;;;10.61;100.00;101511.50;5283374;28;20024;-76
2024/02/06 02:56:57;;;;;;;12.37;4.40;;;;;;;10.56;100.00;101495.03;5282654;28;20023;-76
2024/02/06 02:59:34;;;;;;;11.55;4.50;;;;;;;10.63;100.00;101498.78;5285153;27;20308;-76
2024/02/06 03:02:05;;;;;;;17.00;5.18;;;;;;;10.61;100.00;101491.88;5281006;27;20031;-76
2024/02/06 03:04:35;;;;;;;9.93;4.60;;;;;;;10.66;100.00;101496.81;5286934;27;20068;-75
2024/02/06 03:07:06;;;;;;;14.25;5.10;;;;;;;10.72;100.00;101485.47;5292030;27;20031;-75
2024/02/06 03:09:36;;;;;;;12.35;4.70;;;;;;;10.73;100.00;101479.94;5285536;27;20069;-75
2024/02/06 03:12:07;;;;;;;8.60;4.32;;;;;;;10.70;100.00;101479.41;5290788;27;20476;-76
2024/02/06 03:14:38;;;;;;;13.45;4.28;;;;;;;10.68;100.00;101465.28;5287411;27;20027;-76
2024/02/06 03:17:09;;;;;;;11.70;4.85;;;;;;;10.73;100.00;101463.00;5290428;27;20110;-76
2024/02/06 03:19:40;;;;;;;13.20;4.20;;;;;;;10.70;100.00;101466.84;5289936;27;20047;-76
2024/02/06 03:22:11;;;;;;;10.77;4.47;;;;;;;10.72;100.00;101461.31;5283567;27;20112;-76
2024/02/06 03:24:41;;;;;;;11.38;4.60;;;;;;;10.71;100.00;101463.16;5287986;27;20504;-75
2024/02/06 03:27:12;;;;;;;9.95;4.03;;;;;;;10.68;100.00;101450.03;5291289;27;20015;-76
2024/02/06 03:29:43;;;;;;;13.50;4.15;;;;;;;10.61;100.00;101457.84;5286778;27;20076;-76
2024/02/06 03:32:14;;;;;;;10.25;4.47;;;;;;;10.73;100.00;101455.78;5293608;27;20022;-76
2024/02/06 03:34:44;;;;;;;15.25;4.35;;;;;;;10.79;100.00;101462.38;5281251;27;20533;-76
2024/02/06 03:37:15;;;;;;;10.60;4.40;;;;;;;10.78;100.00;101458.00;5289090;27;20034;-76
2024/02/06 03:39:46;;;;;;;11.48;4.60;;;;;;;10.79;100.00;101451.63;5280269;28;20458;-76
2024/02/06 03:42:17;;;;;;;14.63;4.45;;;;;;;10.67;100.00;101450.19;5286289;27;20042;-76
2024/02/06 03:44:48;;;;;;;12.48;4.43;;;;;;;10.62;100.00;101453.31;5287256;27;20050;-75
2024/02/06 03:47:18;;;;;;;14.90;4.50;;;;;;;10.74;100.00;101453.94;5280243;28;20047;-76
2024/02/06 03:49:49;;;;;;;15.27;4.80;;;;;;;10.66;100.00;101443.97;5284295;27;20023;-75
2024/02/06 03:52:19;;;;;;;12.50;4.50;;;;;;;10.75;100.00;101448.44;5285324;27;20401;-75
2024/02/06 03:54:50;;;;;;;10.77;4.28;;;;;;;10.71;100.00;101449.72;5289911;27;20024;-76
2024/02/06 03:57:20;;;;;;;24.65;4.65;;;;;;;10.71;100.00;101439.00;5282701;27;20031;-76
2024/02/06 03:59:51;;;;;;;16.50;4.68;;;;;;;10.71;100.00;101452.41;5279983;28;20757;-76
2024/02/06 04:02:21;;;;;;;14.13;4.22;;;;;;;10.71;100.00;101443.53;5284313;27;20023;-76
2024/02/06 04:04:52;;;;;;;16.02;4.28;;;;;;;10.70;100.00;101445.38;5282134;28;20124;-75
2024/02/06 04:07:23;;;;;;;16.00;4.70;;;;;;;10.76;100.00;101438.53;5288267;27;20429;-76
2024/02/06 04:09:53;;;;;;;17.63;4.75;;;;;;;10.77;100.00;101451.78;5285057;27;20026;-76
2024/02/06 04:12:24;;;;;;;12.55;4.45;;;;;;;10.73;100.00;101446.88;5288198;27;20417;-76
2024/02/06 04:14:54;;;;;;;9.15;4.65;;;;;;;10.81;100.00;101431.72;5284553;28;20051;-76
2024/02/06 04:17:25;;;;;;;14.00;4.43;;;;;;;10.85;100.00;101434.94;5291817;27;20031;-76
2024/02/06 04:19:55;;;;;;;12.25;4.65;;;;;;;10.89;100.00;101436.28;5283772;28;20060;-76
2024/02/06 04:22:26;;;;;;;16.83;5.43;;;;;;;10.87;100.00;101438.31;5283961;27;20102;-76
2024/02/06 04:24:56;;;;;;;14.52;4.32;;;;;;;10.87;100.00;101428.41;5284441;28;20019;-76
2024/02/06 04:27:27;;;;;;;12.98;5.68;;;;;;;10.82;100.00;101435.25;5287085;28;20027;-76
2024/02/06 04:29:57;;;;;;;16.35;5.47;;;;;;;10.84;100.00;101422.50;5286402;27;20028;-76
2024/02/06 04:32:28;;;;;;;44.75;19.85;;;;;;;10.87;100.00;101411.47;5289673;27;20106;-76
2024/02/06 04:34:59;;;;;;;31.08;14.23;;;;;;;10.82;100.00;101422.66;5291681;27;20028;-76
2024/02/06 04:37:29;;;;;;;25.60;8.80;;;;;;;10.81;100.00;101415.59;5287289;27;20047;-76
2024/02/06 04:40:00;;;;;;;16.27;6.30;;;;;;;10.88;100.00;101422.03;5288812;27;20085;-76
2024/02/06 04:42:30;;;;;;;17.13;6.97;;;;;;;10.81;100.00;101409.41;5287193;27;20027;-74
2024/02/06 04:45:02;;;;;;;20.65;8.63;;;;;;;10.80;100.00;101411.25;5289767;27;20039;-74
2024/02/06 04:47:32;;;;;;;18.30;5.65;;;;;;;10.81;100.00;101402.19;5284438;28;20520;-74
2024/02/06 04:50:05;;;;;;;21.83;9.13;;;;;;;10.87;100.00;101406.94;5287878;27;20058;-71
2024/02/06 04:52:35;;;;;;;15.57;5.72;;;;;;;10.89;100.00;101431.81;5290495;27;20019;-74
2024/02/06 04:55:06;;;;;;;17.83;6.70;;;;;;;10.86;100.00;101407.09;5287321;27;20479;-73
2024/02/06 04:57:37;;;;;;;16.88;4.70;;;;;;;10.71;100.00;101416.69;5287293;27;20034;-74
2024/02/06 05:00:13;;;;;;;18.10;5.93;;;;;;;10.81;100.00;101404.03;5290073;27;20031;-74
2024/02/06 05:02:43;;;;;;;20.83;8.75;;;;;;;10.80;100.00;101429.19;5283289;28;20023;-74
2024/02/06 05:05:14;;;;;;;17.02;6.05;;;;;;;10.82;100.00;101398.50;5285268;28;20027;-74
2024/02/06 05:07:44;;;;;;;24.20;5.95;;;;;;;10.89;100.00;101391.53;5287309;27;20173;-74
2024/02/06 05:10:15;;;;;;;25.85;10.95;;;;;;;10.94;100.00;101403.63;5286648;27;20024;-74
2024/02/06 05:12:46;;;;;;;20.17;5.43;;;;;;;10.88;100.00;101397.03;5280065;27;20024;-74
2024/02/06 05:15:16;;;;;;;16.13;5.05;;;;;;;10.85;100.00;101390.16;5285244;27;20032;-73
2024/02/06 05:17:47;;;;;;;14.82;6.30;;;;;;;10.80;100.00;101387.09;5292836;27;20020;-74
2024/02/06 05:20:18;;;;;;;23.92;8.10;;;;;;;10.87;100.00;101395.34;5288488;27;20020;-74
2024/02/06 05:22:49;;;;;;;10.85;4.95;;;;;;;10.85;100.00;101376.72;5281437;28;20032;-74
2024/02/06 05:25:19;;;;;;;20.98;5.40;;;;;;;10.84;100.00;101376.88;5289894;27;20538;-74
2024/02/06 05:27:50;;;;;;;16.08;5.10;;;;;;;10.89;100.00;101377.25;5287728;27;20051;-74
2024/02/06 05:30:20;;;;;;;15.38;5.18;;;;;;;10.92;100.00;101385.00;5290769;27;20491;-74
2024/02/06 05:32:51;;;;;;;14.63;5.82;;;;;;;10.83;100.00;101389.44;5291151;27;20116;-74
2024/02/06 05:35:21;;;;;;;15.27;6.15;;;;;;;10.83;100.00;101372.50;5290728;27;20042;-74
2024/02/06 05:37:52;;;;;;;18.00;5.03;;;;;;;10.79;100.00;101363.06;5283466;28;20049;-74
2024/02/06 05:40:22;;;;;;;18.40;5.63;;;;;;;10.87;100.00;101360.47;5288087;27;20081;-74
2024/02/06 05:42:53;;;;;;;21.73;5.53;;;;;;;10.88;100.00;101372.88;5286959;27;20089;-74
2024/02/06 05:45:24;;;;;;;24.02;5.55;;;;;;;10.97;100.00;101366.59;5292400;27;20537;-74
2024/02/06 05:47:57;;;;;;;18.75;5.28;;;;;;;11.01;100.00;101361.75;5279056;28;20016;-74
2024/02/06 05:50:30;;;;;;;22.10;6.15;;;;;;;10.88;100.00;101364.81;5280113;28;20071;-74
2024/02/06 05:53:01;;;;;;;15.93;5.28;;;;;;;10.94;100.00;101361.50;5284451;27;20750;-74
2024/02/06 05:55:31;;;;;;;15.10;5.05;;;;;;;10.94;100.00;101374.94;5290014;27;20036;-74
2024/02/06 05:58:02;;;;;;;23.50;6.88;;;;;;;10.90;100.00;101354.78;5287543;27;20038;-74
2024/02/06 06:00:34;;;;;;;16.20;5.50;;;;;;;10.94;100.00;101355.31;5287089;27;20023;-74
2024/02/06 06:03:04;;;;;;;13.98;4.82;;;;;;;10.96;100.00;101351.47;5287577;27;20507;-74
2024/02/06 06:05:35;;;;;;;14.00;5.00;;;;;;;11.01;100.00;101351.84;5286201;27;20031;-74
2024/02/06 06:08:06;;;;;;;14.07;5.30;;;;;;;10.98;100.00;101345.94;5288949;27;20027;-74
2024/02/06 06:10:36;;;;;;;55.88;22.17;;;;;;;10.92;100.00;101354.63;5282531;28;20019;-74
2024/02/06 06:13:07;;;;;;;36.50;14.70;;;;;;;11.03;100.00;101341.78;5285788;28;20027;-74
2024/02/06 06:15:37;;;;;;;20.42;5.47;;;;;;;10.92;100.00;101325.09;5288172;27;20035;-74
2024/02/06 06:18:08;;;;;;;19.27;5.55;;;;;;;10.98;100.00;101325.31;5286582;27;20027;-74
2024/02/06 06:20:38;;;;;;;20.98;6.38;;;;;;;10.94;100.00;101333.81;5283010;27;20058;-74
2024/02/06 06:23:09;;;;;;;23.42;6.03;;;;;;;10.98;100.00;101319.94;5287829;27;20088;-74
2024/02/06 06:25:40;;;;;;;14.10;5.18;;;;;;;10.94;100.00;101307.81;5284852;27;20026;-74
2024/02/06 06:28:10;;;;;;;16.08;5.03;;;;;;;10.93;100.00;101319.56;5281804;27;20030;-74
2024/02/06 06:30:41;;;;;;;19.25;5.20;;;;;;;10.97;100.00;101312.88;5285075;27;20388;-74
2024/02/06 06:33:11;;;;;;;19.20;5.05;;;;;;;11.06;100.00;101309.25;5285000;27;20031;-74
2024/02/06 06:35:42;;;;;;;17.35;6.07;;;;;;;11.01;100.00;101308.91;5286108;27;20031;-74
2024/02/06 06:38:12;;;;;;;15.60;4.70;;;;;;;10.96;100.00;101315.75;5284183;27;20023;-74
2024/02/06 06:40:43;;;;;;;16.50;6.68;;;;;;;10.97;100.00;101307.53;5282113;28;20038;-74
2024/02/06 06:43:13;;;;;;;16.98;5.60;;;;;;;10.96;100.00;101305.84;5283212;28;20027;-74
2024/02/06 06:45:44;;;;;;;16.52;5.22;;;;;;;10.83;100.00;101306.25;5285295;27;20020;-74
2024/02/06 06:48:15;;;;;;;18.50;5.45;;;;;;;10.87;100.00;101304.09;5287999;27;20461;-74
2024/02/06 06:50:45;;;;;;;15.45;5.35;;;;;;;10.92;100.00;101301.78;5281466;27;20190;-74
2024/02/06 06:53:16;;;;;;;21.25;6.07;;;;;;;10.98;100.00;101309.19;5283885;28;20366;-74
2024/02/06 06:55:46;;;;;;;22.40;5.43;;;;;;;10.97;100.00;101302.16;5284618;28;20039;-74
2024/02/06 06:58:17;;;;;;;22.17;5.65;;;;;;;11.04;100.00;101297.81;5285076;27;20027;-74
2024/02/06 07:00:47;;;;;;;24.13;5.35;;;;;;;10.96;100.00;101302.31;5283622;28;20024;-74
2024/02/06 07:03:18;;;;;;;25.40;6.53;;;;;;;11.06;100.00;101311.09;5282094;27;20070;-74
2024/02/06 07:05:52;;;;;;;16.90;5.10;;;;;;;11.02;100.00;101318.63;5275620;27;20107;-74
2024/02/06 07:08:22;;;;;;;18.73;5.40;;;;;;;11.05;100.00;101318.31;5282476;27;20019;-74
2024/02/06 07:10:53;;;;;;;20.05;6.47;;;;;;;11.04;100.00;101313.94;5281602;27;20023;-74
2024/02/06 07:13:24;;;;;;;16.83;5.65;;;;;;;10.99;100.00;101321.63;5286514;27;20019;-74
2024/02/06 07:15:54;;;;;;;24.70;8.30;;;;;;;10.98;100.00;101317.25;5289720;27;20026;-75
2024/02/06 07:18:25;;;;;;;14.13;5.63;;;;;;;10.99;100.00;101310.03;5285190;27;20016;-74
2024/02/06 07:20:56;;;;;;;22.58;5.53;;;;;;;11.09;100.00;101308.97;5284584;27;20035;-74
2024/02/06 07:23:27;;;;;;;29.05;12.65;;;;;;;11.12;100.00;101316.69;5281684;27;20023;-74
2024/02/06 07:25:57;;;;;;;18.55;5.65;;;;;;;11.00;100.00;101317.97;5277170;27;20036;-74
2024/02/06 07:28:28;;;;;;;21.02;5.43;;;;;;;11.12;100.00;101299.72;5285333;27;20067;-74
2024/02/06 07:30:59;;;;;;;16.02;5.13;;;;;;;11.17;100.00;101310.00;5280748;27;20530;-74
2024/02/06 07:33:31;;;;;;;24.55;5.93;;;;;;;11.08;100.00;101309.09;5283118;27;20026;-74
2024/02/06 07:36:02;;;;;;;20.55;5.47;;;;;;;11.22;100.00;101310.34;5280353;27;20055;-74
2024/02/06 07:38:33;;;;;;;16.60;5.85;;;;;;;11.12;100.00;101303.25;5278830;27;20080;-74
2024/02/06 07:41:04;;;;;;;20.92;6.13;;;;;;;11.16;100.00;101309.16;5284225;27;20107;-74
2024/02/06 07:43:35;;;;;;;14.05;5.63;;;;;;;11.05;100.00;101310.28;5278658;27;20110;-74
2024/02/06 07:46:06;;;;;;;22.42;5.95;;;;;;;11.02;100.00;101310.56;5276219;27;20020;-74
2024/02/06 07:48:37;;;;;;;15.57;6.28;;;;;;;11.09;100.00;101311.66;5284705;27;20032;-74
2024/02/06 07:51:08;;;;;;;13.30;5.70;;;;;;;11.16;100.00;101317.22;5272747;27;20111;-74
2024/02/06 07:53:38;;;;;;;20.55;5.80;;;;;;;11.13;100.00;101313.00;5280145;27;20029;-74
2024/02/06 07:56:09;;;;;;;16.17;6.18;;;;;;;11.13;100.00;101306.78;5281162;27;20029;-74
2024/02/06 07:58:39;;;;;;;25.52;6.53;;;;;;;11.12;100.00;101300.56;5273804;28;20036;-74
2024/02/06 08:01:11;;;;;;;21.13;6.72;;;;;;;11.18;100.00;101315.19;5281860;27;20027;-74
2024/02/06 08:03:41;;;;;;;17.30;6.40;;;;;;;11.22;100.00;101321.09;5274445;27;20072;-74
2024/02/06 08:06:12;;;;;;;19.75;6.38;;;;;;;11.26;100.00;101317.09;5278699;27;20019;-74
2024/02/06 08:08:42;;;;;;;19.40;5.68;;;;;;;11.18;100.00;101320.56;5284710;27;20016;-74
2024/02/06 08:11:13;;;;;;;17.30;7.35;;;;;;;11.25;100.00;101321.63;5281090;28;20023;-74
2024/02/06 08:13:44;;;;;;;13.30;5.63;;;;;;;11.24;100.00;101313.72;5281321;27;20046;-74
2024/02/06 08:16:15;;;;;;;16.15;6.10;;;;;;;11.28;100.00;101325.84;5278417;28;20103;-74
2024/02/06 08:18:46;;;;;;;12.55;5.45;;;;;;;11.19;100.00;101326.78;5282139;28;20036;-74
2024/02/06 08:21:16;;;;;;;21.30;6.85;;;;;;;11.23;100.00;101317.41;5282254;28;20023;-73
2024/02/06 08:23:47;;;;;;;21.80;6.13;;;;;;;11.22;100.00;101319.25;5276467;28;20075;-74
2024/02/06 08:26:17;;;;;;;22.83;6.60;;;;;;;11.37;100.00;101317.66;5279006;28;20118;-74
2024/02/06 08:28:48;;;;;;;25.73;7.38;;;;;;;11.46;100.00;101321.25;5284453;28;20035;-74
2024/02/06 08:31:22;;;;;;;19.42;6.50;;;;;;;11.39;100.00;101309.44;5279861;27;20020;-74
2024/02/06 08:33:52;;;;;;;18.88;5.70;;;;;;;11.35;100.00;101316.16;5282702;28;20031;-74
2024/02/06 08:36:23;;;;;;;18.67;5.68;;;;;;;11.34;100.00;101314.44;5278862;28;20020;-74
2024/02/06 08:38:53;;;;;;;15.80;6.90;;;;;;;11.29;100.00;101322.13;5280417;28;20111;-74
2024/02/06 08:41:28;;;;;;;27.42;6.32;;;;;;;11.31;100.00;101307.56;5279472;28;20039;-74
2024/02/06 08:43:59;;;;;;;19.98;6.15;;;;;;;11.30;100.00;101319.31;5275646;28;20023;-74
2024/02/06 08:46:29;;;;;;;18.65;5.75;;;;;;;11.31;100.00;101314.78;5282122;28;20441;-74
2024/02/06 08:49:00;;;;;;;20.38;6.00;;;;;;;11.38;100.00;101313.97;5279241;27;20119;-74
2024/02/06 08:51:30;;;;;;;24.02;6.18;;;;;;;11.30;100.00;101305.88;5282682;28;20457;-74
2024/02/06 08:54:01;;;;;;;17.05;5.75;;;;;;;11.31;100.00;101304.03;5274193;28;20068;-74
2024/02/06 08:56:33;;;;;;;25.23;6.50;;;;;;;11.28;100.00;101298.97;5273942;28;20024;-74
2024/02/06 08:59:05;;;;;;;24.48;6.78;;;;;;;11.31;100.00;101293.28;5277633;28;20417;-74
2024/02/06 09:01:36;;;;;;;22.42;5.88;;;;;;;11.33;100.00;101299.34;5279967;28;20016;-74
2024/02/06 09:04:06;;;;;;;21.35;6.10;;;;;;;11.31;100.00;101286.06;5276883;28;20042;-74
2024/02/06 09:06:37;;;;;;;23.27;5.55;;;;;;;11.32;100.00;101286.91;5282307;28;20488;-74
2024/02/06 09:09:09;;;;;;;14.98;5.65;;;;;;;11.30;100.00;101313.09;5284445;28;20027;-74
2024/02/06 09:11:40;;;;;;;20.10;6.05;;;;;;;11.21;100.00;101306.00;5280765;28;20024;-74
2024/02/06 09:14:11;;;;;;;23.52;6.03;;;;;;;11.28;100.00;101307.03;5280880;28;20061;-74
2024/02/06 09:16:41;;;;;;;14.30;5.60;;;;;;;11.44;100.00;101306.28;5276605;27;20023;-74
2024/02/06 09:19:12;;;;;;;20.25;5.82;;;;;;;11.51;100.00;101307.31;5283258;27;20040;-74
2024/02/06 09:21:42;;;;;;;22.90;6.13;;;;;;;11.38;100.00;101288.94;5283864;27;20019;-74
2024/02/06 09:24:13;;;;;;;17.20;6.63;;;;;;;11.58;100.00;101305.66;5283782;27;20028;-74
2024/02/06 09:26:43;;;;;;;22.75;6.55;;;;;;;11.62;100.00;101296.28;5284957;27;20039;-74
2024/02/06 09:29:13;;;;;;;18.08;6.35;;;;;;;11.61;100.00;101290.06;5280554;27;20499;-74
2024/02/06 09:31:44;;;;;;;25.65;6.45;;;;;;;11.67;100.00;101310.06;5289501;27;20035;-74
2024/02/06 09:34:15;;;;;;;20.60;5.72;;;;;;;11.68;100.00;101309.06;5283564;27;20025;-74
2024/02/06 09:36:46;;;;;;;18.42;5.53;;;;;;;11.61;100.00;101290.06;5282150;27;20038;-74
2024/02/06 09:39:16;;;;;;;15.23;6.25;;;;;;;11.54;100.00;101298.94;5272669;28;20035;-74
2024/02/06 09:41:49;;;;;;;17.42;5.97;;;;;;;11.53;100.00;101279.28;5278956;27;20028;-74
2024/02/06 09:44:20;;;;;;;21.13;5.38;;;;;;;11.65;100.00;101264.56;5282920;27;20035;-74
2024/02/06 09:46:52;;;;;;;15.98;5.35;;;;;;;11.65;100.00;101275.31;5284549;27;20035;-74
2024/02/06 09:49:22;;;;;;;18.30;5.32;;;;;;;11.63;100.00;101266.56;5284959;27;20024;-74
2024/02/06 09:51:54;;;;;;;20.15;6.30;;;;;;;11.68;100.00;101271.44;5275440;28;20039;-74
2024/02/06 09:54:25;;;;;;;16.83;5.85;;;;;;;11.67;100.00;101267.06;5281686;27;20027;-74
2024/02/06 09:56:56;;;;;;;29.45;7.05;;;;;;;11.65;100.00;101264.56;5286816;27;20023;-74
2024/02/06 09:59:28;;;;;;;23.13;6.22;;;;;;;11.69;100.00;101265.06;5281653;27;20027;-74
2024/02/06 10:02:00;;;;;;;23.13;7.85;;;;;;;11.76;100.00;101270.63;5277694;28;20069;-74
2024/02/06 10:04:32;;;;;;;23.95;6.70;;;;;;;11.67;100.00;101275.97;5286165;27;20396;-74
2024/02/06 10:07:03;;;;;;;17.77;5.18;;;;;;;11.65;100.00;101293.28;5281944;28;20172;-74
2024/02/06 10:09:35;;;;;;;17.00;6.20;;;;;;;11.57;100.00;101282.50;5283916;27;20032;-74
2024/02/06 10:12:06;;;;;;;17.30;5.75;;;;;;;11.47;100.00;101287.16;5275295;27;20694;-74
2024/02/06 10:14:37;;;;;;;22.35;5.30;;;;;;;11.66;100.00;101295.78;5279051;27;20046;-74
2024/02/06 10:17:09;;;;;;;17.13;5.10;;;;;;;11.58;100.00;101297.59;5279714;28;20027;-74
2024/02/06 10:19:39;;;;;;;21.13;5.72;;;;;;;11.68;100.00;101288.41;5280624;28;20016;-74
2024/02/06 10:22:12;;;;;;;17.65;5.65;;;;;;;11.69;100.00;101281.19;5284167;27;20035;-74
2024/02/06 10:24:43;;;;;;;20.27;6.20;;;;;;;11.60;100.00;101283.03;5285400;27;20028;-74
2024/02/06 10:27:15;;;;;;;18.15;5.88;;;;;;;11.80;100.00;101269.31;5279526;28;20027;-73
2024/02/06 10:29:57;;;;;;;28.48;5.88;;;;;;;11.73;100.00;101266.41;5278008;28;20696;-74
2024/02/06 10:32:30;;;;;;;21.25;5.60;;;;;;;11.72;100.00;101274.66;5275096;28;20031;-74
2024/02/06 10:35:02;;;;;;;19.35;5.75;;;;;;;11.69;100.00;101281.19;5283313;28;20084;-74
2024/02/06 10:37:37;;;;;;;18.08;5.65;;;;;;;11.80;100.00;101274.69;5278280;27;20493;-74
2024/02/06 10:40:11;;;;;;;13.95;4.78;;;;;;;11.70;100.00;101282.88;5282026;28;20027;-74
2024/02/06 10:42:43;;;;;;;17.27;5.25;;;;;;;11.79;100.00;101283.72;5279492;27;20469;-74
2024/02/06 10:45:17;;;;;;;21.50;5.63;;;;;;;11.62;100.00;101269.41;5279807;28;20409;-74
2024/02/06 10:47:58;;;;;;;16.65;5.47;;;;;;;11.76;100.00;101273.31;5284279;27;20019;-74
2024/02/06 10:50:32;;;;;;;19.30;5.90;;;;;;;11.73;100.00;101265.56;5278599;28;20027;-74
2024/02/06 10:53:04;;;;;;;22.25;5.22;;;;;;;11.83;100.00;101260.94;5274679;28;20023;-74
2024/02/06 10:55:35;;;;;;;21.90;5.40;;;;;;;11.89;100.00;101269.16;5284521;27;20046;-74
2024/02/06 10:58:06;;;;;;;30.77;7.63;;;;;;;11.94;100.00;101268.69;5282843;27;20384;-74
2024/02/06 11:00:42;;;;;;;13.52;4.88;;;;;;;11.89;100.00;101257.56;5279390;28;20085;-74
2024/02/06 11:03:14;;;;;;;19.75;5.65;;;;;;;11.92;100.00;101266.16;5278372;27;20020;-74
2024/02/06 11:05:50;;;;;;;14.60;4.55;;;;;;;11.87;100.00;101263.13;5279743;28;20077;-74
2024/02/06 11:08:22;;;;;;;18.77;4.82;;;;;;;11.99;100.00;101247.50;5286901;27;20035;-74
2024/02/06 11:10:56;;;;;;;18.30;4.68;;;;;;;11.87;100.00;101254.22;5282267;27;20023;-74
2024/02/06 11:13:40;;;;;;;19.65;4.97;;;;;;;11.78;100.00;101250.63;5282628;27;20077;-74
2024/02/06 11:16:15;;;;;;;22.02;4.93;;;;;;;12.00;100.00;101240.28;5277766;27;20019;-74
2024/02/06 11:19:02;;;;;;;20.10;5.05;;;;;;;12.11;100.00;101232.75;5283601;27;20019;-74
2024/02/06 11:21:42;;;;;;;19.30;4.32;;;;;;;12.13;100.00;101236.09;5285474;27;20036;-74
2024/02/06 11:24:13;;;;;;;19.67;4.10;;;;;;;12.30;100.00;101228.91;5277311;27;20055;-74
2024/02/06 11:26:45;;;;;;;19.13;5.38;;;;;;;12.39;100.00;101227.03;5277942;27;20019;-74